Details for Transavia (France) at LFRS




Go Back


Latest METAR
Local Time

LFRS 240000Z AUTO 10006KT 9999 BKN035 01/M04 Q1012 NOSIG

24/02/2018, 01:07:27

Description
Results
Transavia (France) Logo
Number of Pilots based at LFRS
0 Pilots Based here
Number of Transavia (France) Flights Departed from LFRS
0 Flights Departed
Number of Transavia (France) Flights Arrived at LFRS
0 Flights Arrived
Number of Transavia (France) Schedules Departing from LFRS
13 Schedules
Number of Transavia (France) Schedules Arriving at LFRS
13 Schedules
Number of Transavia (France) Schedules Departing from LFRS availible today
2 Schedules Today
Number of Transavia (France) Schedules Arriving at LFRS availible today
2 Schedules Today
Average Landing Rate at LFRS
-377 fpm
Transavia (France) Average Landing Rate at LFRS
0 fpm
Total Fuel Purchased at LFRS by Transavia (France)
0.00 kgs / 0.00 lbs

Pilots Based at LFRS


Pilot ID
Pilot Name
Pilot Rank
No. of Flights
No. of Flying Hours
There are no pilots assigned to this hub!   Will you be the first?
Content